sensor_id;sensor_type;location;lat;lon;timestamp;P1;durP1;ratioP1;P2;durP2;ratioP2
25327;SDS011;13279;51.300;12.394;2023-06-14T00:00:49;4.07;;;2.40;;
25327;SDS011;13279;51.300;12.394;2023-06-14T00:03:18;2.00;;;1.77;;
25327;SDS011;13279;51.300;12.394;2023-06-14T00:05:47;2.20;;;2.00;;
25327;SDS011;13279;51.300;12.394;2023-06-14T00:08:15;3.67;;;2.10;;
25327;SDS011;13279;51.300;12.394;2023-06-14T00:10:44;2.10;;;1.87;;
25327;SDS011;13279;51.300;12.394;2023-06-14T00:13:12;1.70;;;1.60;;
25327;SDS011;13279;51.300;12.394;2023-06-14T00:15:40;6.77;;;2.40;;
25327;SDS011;13279;51.300;12.394;2023-06-14T00:18:09;1.80;;;1.70;;
25327;SDS011;13279;51.300;12.394;2023-06-14T00:20:37;2.37;;;1.80;;
25327;SDS011;13279;51.300;12.394;2023-06-14T00:23:04;2.87;;;2.10;;
25327;SDS011;13279;51.300;12.394;2023-06-14T00:25:32;4.20;;;1.70;;
25327;SDS011;13279;51.300;12.394;2023-06-14T00:27:59;6.10;;;2.43;;
25327;SDS011;13279;51.300;12.394;2023-06-14T00:30:27;4.70;;;2.57;;
25327;SDS011;13279;51.300;12.394;2023-06-14T00:32:56;3.00;;;1.90;;
25327;SDS011;13279;51.300;12.394;2023-06-14T00:35:26;5.07;;;2.27;;
25327;SDS011;13279;51.300;12.394;2023-06-14T00:37:53;3.53;;;2.40;;
25327;SDS011;13279;51.300;12.394;2023-06-14T00:40:21;8.97;;;2.33;;
25327;SDS011;13279;51.300;12.394;2023-06-14T00:42:49;5.60;;;2.30;;
25327;SDS011;13279;51.300;12.394;2023-06-14T00:45:16;1.87;;;1.77;;
25327;SDS011;13279;51.300;12.394;2023-06-14T00:47:46;3.33;;;2.30;;
25327;SDS011;13279;51.300;12.394;2023-06-14T00:50:15;5.10;;;2.40;;
25327;SDS011;13279;51.300;12.394;2023-06-14T00:52:44;3.07;;;2.10;;
25327;SDS011;13279;51.300;12.394;2023-06-14T00:55:12;4.97;;;2.27;;
25327;SDS011;13279;51.300;12.394;2023-06-14T00:57:39;6.83;;;2.43;;
25327;SDS011;13279;51.300;12.394;2023-06-14T01:00:08;2.33;;;2.13;;
25327;SDS011;13279;51.300;12.394;2023-06-14T01:02:36;2.53;;;2.30;;
25327;SDS011;13279;51.300;12.394;2023-06-14T01:05:04;2.03;;;1.83;;
25327;SDS011;13279;51.300;12.394;2023-06-14T01:07:34;2.87;;;2.00;;
25327;SDS011;13279;51.300;12.394;2023-06-14T01:10:24;7.33;;;2.27;;
25327;SDS011;13279;51.300;12.394;2023-06-14T01:13:02;3.80;;;2.67;;
25327;SDS011;13279;51.300;12.394;2023-06-14T01:15:35;3.40;;;2.37;;
25327;SDS011;13279;51.300;12.394;2023-06-14T01:18:04;2.43;;;2.23;;
25327;SDS011;13279;51.300;12.394;2023-06-14T01:20:33;2.47;;;2.27;;
25327;SDS011;13279;51.300;12.394;2023-06-14T01:23:04;4.67;;;2.30;;
25327;SDS011;13279;51.300;12.394;2023-06-14T01:25:32;4.63;;;2.20;;
25327;SDS011;13279;51.300;12.394;2023-06-14T01:28:03;6.50;;;2.67;;
25327;SDS011;13279;51.300;12.394;2023-06-14T01:30:36;5.13;;;2.10;;
25327;SDS011;13279;51.300;12.394;2023-06-14T01:33:10;2.97;;;2.63;;
25327;SDS011;13279;51.300;12.394;2023-06-14T01:35:40;5.50;;;2.20;;
25327;SDS011;13279;51.300;12.394;2023-06-14T01:38:10;3.77;;;2.43;;
25327;SDS011;13279;51.300;12.394;2023-06-14T01:40:40;3.33;;;2.70;;
25327;SDS011;13279;51.300;12.394;2023-06-14T01:43:09;3.23;;;2.70;;
25327;SDS011;13279;51.300;12.394;2023-06-14T01:45:38;10.00;;;2.90;;
25327;SDS011;13279;51.300;12.394;2023-06-14T01:48:07;2.50;;;2.30;;
25327;SDS011;13279;51.300;12.394;2023-06-14T01:50:35;3.00;;;2.43;;
25327;SDS011;13279;51.300;12.394;2023-06-14T01:53:05;5.23;;;2.47;;
25327;SDS011;13279;51.300;12.394;2023-06-14T01:55:37;7.27;;;2.60;;
25327;SDS011;13279;51.300;12.394;2023-06-14T01:58:08;3.80;;;2.83;;
25327;SDS011;13279;51.300;12.394;2023-06-14T02:00:36;3.07;;;2.87;;
25327;SDS011;13279;51.300;12.394;2023-06-14T02:03:04;12.43;;;2.90;;
25327;SDS011;13279;51.300;12.394;2023-06-14T02:05:32;4.57;;;2.50;;
25327;SDS011;13279;51.300;12.394;2023-06-14T02:08:00;3.20;;;2.40;;
25327;SDS011;13279;51.300;12.394;2023-06-14T02:10:28;10.70;;;2.97;;
25327;SDS011;13279;51.300;12.394;2023-06-14T02:12:57;6.60;;;3.10;;
25327;SDS011;13279;51.300;12.394;2023-06-14T02:15:24;7.80;;;2.77;;
25327;SDS011;13279;51.300;12.394;2023-06-14T02:18:00;3.00;;;2.70;;
25327;SDS011;13279;51.300;12.394;2023-06-14T02:20:29;4.50;;;2.40;;
25327;SDS011;13279;51.300;12.394;2023-06-14T02:22:56;5.33;;;2.93;;
25327;SDS011;13279;51.300;12.394;2023-06-14T02:25:24;4.60;;;2.90;;
25327;SDS011;13279;51.300;12.394;2023-06-14T02:27:53;4.20;;;2.60;;
25327;SDS011;13279;51.300;12.394;2023-06-14T02:30:23;4.47;;;2.73;;
25327;SDS011;13279;51.300;12.394;2023-06-14T02:32:50;2.77;;;2.57;;
25327;SDS011;13279;51.300;12.394;2023-06-14T02:35:19;3.20;;;2.90;;
25327;SDS011;13279;51.300;12.394;2023-06-14T02:37:50;3.07;;;2.70;;
25327;SDS011;13279;51.300;12.394;2023-06-14T02:40:18;6.73;;;2.87;;
25327;SDS011;13279;51.300;12.394;2023-06-14T02:42:46;5.43;;;3.17;;
25327;SDS011;13279;51.300;12.394;2023-06-14T02:45:13;3.43;;;3.13;;
25327;SDS011;13279;51.300;12.394;2023-06-14T02:47:42;3.30;;;3.00;;
25327;SDS011;13279;51.300;12.394;2023-06-14T02:50:11;6.57;;;2.97;;
25327;SDS011;13279;51.300;12.394;2023-06-14T02:52:39;3.00;;;2.70;;
25327;SDS011;13279;51.300;12.394;2023-06-14T02:55:08;3.70;;;2.77;;
25327;SDS011;13279;51.300;12.394;2023-06-14T02:57:36;6.40;;;2.60;;
25327;SDS011;13279;51.300;12.394;2023-06-14T03:00:05;4.83;;;3.07;;
25327;SDS011;13279;51.300;12.394;2023-06-14T03:02:37;2.77;;;2.57;;
25327;SDS011;13279;51.300;12.394;2023-06-14T03:05:07;5.27;;;3.03;;
25327;SDS011;13279;51.300;12.394;2023-06-14T03:07:35;4.80;;;2.70;;
25327;SDS011;13279;51.300;12.394;2023-06-14T03:10:07;3.27;;;2.57;;
25327;SDS011;13279;51.300;12.394;2023-06-14T03:12:36;5.20;;;2.40;;
25327;SDS011;13279;51.300;12.394;2023-06-14T03:15:04;5.57;;;2.90;;
25327;SDS011;13279;51.300;12.394;2023-06-14T03:17:36;3.70;;;2.83;;
25327;SDS011;13279;51.300;12.394;2023-06-14T03:20:07;2.60;;;2.40;;
25327;SDS011;13279;51.300;12.394;2023-06-14T03:22:35;3.90;;;2.40;;
25327;SDS011;13279;51.300;12.394;2023-06-14T03:25:03;5.40;;;2.77;;
25327;SDS011;13279;51.300;12.394;2023-06-14T03:27:35;4.67;;;2.90;;
25327;SDS011;13279;51.300;12.394;2023-06-14T03:30:04;6.30;;;2.93;;
25327;SDS011;13279;51.300;12.394;2023-06-14T03:32:34;5.87;;;2.70;;
25327;SDS011;13279;51.300;12.394;2023-06-14T03:35:02;3.17;;;2.90;;
25327;SDS011;13279;51.300;12.394;2023-06-14T03:37:32;3.97;;;3.00;;
25327;SDS011;13279;51.300;12.394;2023-06-14T03:40:00;3.43;;;3.13;;
25327;SDS011;13279;51.300;12.394;2023-06-14T03:42:36;3.73;;;3.00;;
25327;SDS011;13279;51.300;12.394;2023-06-14T03:45:05;3.07;;;2.80;;
25327;SDS011;13279;51.300;12.394;2023-06-14T03:47:33;5.13;;;2.70;;
25327;SDS011;13279;51.300;12.394;2023-06-14T03:50:01;5.43;;;2.70;;
25327;SDS011;13279;51.300;12.394;2023-06-14T03:52:29;3.00;;;2.70;;
25327;SDS011;13279;51.300;12.394;2023-06-14T03:55:00;5.07;;;2.40;;
25327;SDS011;13279;51.300;12.394;2023-06-14T03:57:29;2.80;;;2.60;;
25327;SDS011;13279;51.300;12.394;2023-06-14T04:00:00;4.40;;;2.67;;
25327;SDS011;13279;51.300;12.394;2023-06-14T04:02:39;3.00;;;2.70;;
25327;SDS011;13279;51.300;12.394;2023-06-14T04:05:09;6.43;;;3.00;;
25327;SDS011;13279;51.300;12.394;2023-06-14T04:07:43;7.30;;;3.73;;
25327;SDS011;13279;51.300;12.394;2023-06-14T04:10:13;3.63;;;2.83;;
25327;SDS011;13279;51.300;12.394;2023-06-14T04:12:42;3.30;;;2.60;;
25327;SDS011;13279;51.300;12.394;2023-06-14T04:15:12;4.17;;;2.70;;
25327;SDS011;13279;51.300;12.394;2023-06-14T04:17:41;3.47;;;2.73;;
25327;SDS011;13279;51.300;12.394;2023-06-14T04:20:08;3.57;;;2.63;;
25327;SDS011;13279;51.300;12.394;2023-06-14T04:22:37;3.10;;;2.80;;
25327;SDS011;13279;51.300;12.394;2023-06-14T04:25:07;4.77;;;2.73;;
25327;SDS011;13279;51.300;12.394;2023-06-14T04:27:37;3.33;;;2.53;;
25327;SDS011;13279;51.300;12.394;2023-06-14T04:30:06;3.67;;;2.93;;
25327;SDS011;13279;51.300;12.394;2023-06-14T04:32:39;6.10;;;2.97;;
25327;SDS011;13279;51.300;12.394;2023-06-14T04:35:11;3.20;;;2.90;;
25327;SDS011;13279;51.300;12.394;2023-06-14T04:37:42;7.80;;;3.17;;
25327;SDS011;13279;51.300;12.394;2023-06-14T04:40:11;4.30;;;3.20;;
25327;SDS011;13279;51.300;12.394;2023-06-14T04:42:41;3.27;;;3.00;;
25327;SDS011;13279;51.300;12.394;2023-06-14T04:45:11;4.03;;;3.33;;
25327;SDS011;13279;51.300;12.394;2023-06-14T04:47:41;5.70;;;3.00;;
25327;SDS011;13279;51.300;12.394;2023-06-14T04:50:09;3.63;;;3.00;;
25327;SDS011;13279;51.300;12.394;2023-06-14T04:52:39;4.53;;;2.80;;
25327;SDS011;13279;51.300;12.394;2023-06-14T04:55:08;3.73;;;3.30;;
25327;SDS011;13279;51.300;12.394;2023-06-14T04:57:36;4.10;;;3.33;;
25327;SDS011;13279;51.300;12.394;2023-06-14T05:00:08;5.17;;;3.30;;
25327;SDS011;13279;51.300;12.394;2023-06-14T05:02:38;6.87;;;3.47;;
25327;SDS011;13279;51.300;12.394;2023-06-14T05:05:06;7.97;;;3.83;;
25327;SDS011;13279;51.300;12.394;2023-06-14T05:07:36;5.93;;;3.30;;
25327;SDS011;13279;51.300;12.394;2023-06-14T05:10:04;6.87;;;3.60;;
25327;SDS011;13279;51.300;12.394;2023-06-14T05:12:33;6.43;;;3.30;;
25327;SDS011;13279;51.300;12.394;2023-06-14T05:15:00;6.87;;;3.17;;
25327;SDS011;13279;51.300;12.394;2023-06-14T05:17:29;4.10;;;3.43;;
25327;SDS011;13279;51.300;12.394;2023-06-14T05:19:56;5.60;;;3.80;;
25327;SDS011;13279;51.300;12.394;2023-06-14T05:22:24;8.27;;;3.80;;
25327;SDS011;13279;51.300;12.394;2023-06-14T05:24:52;3.67;;;3.37;;
25327;SDS011;13279;51.300;12.394;2023-06-14T05:27:20;5.60;;;3.60;;
25327;SDS011;13279;51.300;12.394;2023-06-14T05:29:47;6.43;;;3.47;;
25327;SDS011;13279;51.300;12.394;2023-06-14T05:32:15;5.77;;;3.60;;
25327;SDS011;13279;51.300;12.394;2023-06-14T05:34:44;6.97;;;4.53;;
25327;SDS011;13279;51.300;12.394;2023-06-14T05:37:12;4.53;;;3.93;;
25327;SDS011;13279;51.300;12.394;2023-06-14T05:39:39;4.30;;;3.90;;
25327;SDS011;13279;51.300;12.394;2023-06-14T05:42:08;5.13;;;4.13;;
25327;SDS011;13279;51.300;12.394;2023-06-14T05:44:36;7.23;;;3.97;;
25327;SDS011;13279;51.300;12.394;2023-06-14T05:47:04;4.13;;;3.73;;
25327;SDS011;13279;51.300;12.394;2023-06-14T05:49:31;4.97;;;4.23;;
25327;SDS011;13279;51.300;12.394;2023-06-14T05:52:00;5.23;;;4.10;;
25327;SDS011;13279;51.300;12.394;2023-06-14T05:54:27;9.97;;;4.40;;
25327;SDS011;13279;51.300;12.394;2023-06-14T05:56:55;4.43;;;4.03;;
25327;SDS011;13279;51.300;12.394;2023-06-14T05:59:27;5.23;;;4.53;;
25327;SDS011;13279;51.300;12.394;2023-06-14T06:01:54;5.67;;;4.77;;
25327;SDS011;13279;51.300;12.394;2023-06-14T06:04:23;9.83;;;4.10;;
25327;SDS011;13279;51.300;12.394;2023-06-14T06:06:51;4.67;;;4.27;;
25327;SDS011;13279;51.300;12.394;2023-06-14T06:09:20;6.00;;;4.53;;
25327;SDS011;13279;51.300;12.394;2023-06-14T06:11:47;5.77;;;4.60;;
25327;SDS011;13279;51.300;12.394;2023-06-14T06:14:15;8.30;;;4.40;;
25327;SDS011;13279;51.300;12.394;2023-06-14T06:16:42;8.27;;;4.93;;
25327;SDS011;13279;51.300;12.394;2023-06-14T06:19:12;10.10;;;5.60;;
25327;SDS011;13279;51.300;12.394;2023-06-14T06:21:39;6.43;;;4.47;;
25327;SDS011;13279;51.300;12.394;2023-06-14T06:24:07;5.37;;;4.63;;
25327;SDS011;13279;51.300;12.394;2023-06-14T06:26:36;7.97;;;4.60;;
25327;SDS011;13279;51.300;12.394;2023-06-14T06:29:04;5.87;;;4.40;;
25327;SDS011;13279;51.300;12.394;2023-06-14T06:31:31;7.37;;;4.63;;
25327;SDS011;13279;51.300;12.394;2023-06-14T06:33:59;12.97;;;4.23;;
25327;SDS011;13279;51.300;12.394;2023-06-14T06:36:26;4.47;;;4.07;;
25327;SDS011;13279;51.300;12.394;2023-06-14T06:38:54;6.17;;;4.33;;
25327;SDS011;13279;51.300;12.394;2023-06-14T06:41:21;3.83;;;3.43;;
25327;SDS011;13279;51.300;12.394;2023-06-14T06:43:50;7.70;;;3.83;;
25327;SDS011;13279;51.300;12.394;2023-06-14T06:46:17;4.57;;;4.17;;
25327;SDS011;13279;51.300;12.394;2023-06-14T06:48:45;4.43;;;3.73;;
25327;SDS011;13279;51.300;12.394;2023-06-14T06:51:12;4.83;;;4.30;;
25327;SDS011;13279;51.300;12.394;2023-06-14T06:53:42;8.17;;;4.27;;
25327;SDS011;13279;51.300;12.394;2023-06-14T06:56:10;9.63;;;4.33;;
25327;SDS011;13279;51.300;12.394;2023-06-14T06:58:38;5.50;;;3.93;;
25327;SDS011;13279;51.300;12.394;2023-06-14T07:01:06;3.67;;;3.37;;
25327;SDS011;13279;51.300;12.394;2023-06-14T07:03:34;7.60;;;4.03;;
25327;SDS011;13279;51.300;12.394;2023-06-14T07:06:02;4.80;;;4.13;;
25327;SDS011;13279;51.300;12.394;2023-06-14T07:08:30;5.47;;;4.30;;
25327;SDS011;13279;51.300;12.394;2023-06-14T07:10:57;4.10;;;3.77;;
25327;SDS011;13279;51.300;12.394;2023-06-14T07:13:25;6.13;;;4.00;;
25327;SDS011;13279;51.300;12.394;2023-06-14T07:15:55;7.53;;;4.20;;
25327;SDS011;13279;51.300;12.394;2023-06-14T07:21:53;5.20;;;3.73;;
25327;SDS011;13279;51.300;12.394;2023-06-14T07:24:52;6.63;;;3.77;;
25327;SDS011;13279;51.300;12.394;2023-06-14T07:27:20;4.53;;;3.37;;
25327;SDS011;13279;51.300;12.394;2023-06-14T07:29:47;11.40;;;3.33;;
25327;SDS011;13279;51.300;12.394;2023-06-14T07:32:14;6.53;;;3.47;;
25327;SDS011;13279;51.300;12.394;2023-06-14T07:34:43;4.33;;;3.47;;
25327;SDS011;13279;51.300;12.394;2023-06-14T07:37:10;6.57;;;3.67;;
25327;SDS011;13279;51.300;12.394;2023-06-14T07:39:38;7.63;;;3.63;;
25327;SDS011;13279;51.300;12.394;2023-06-14T07:42:06;5.80;;;4.07;;
25327;SDS011;13279;51.300;12.394;2023-06-14T07:44:33;3.50;;;3.13;;
25327;SDS011;13279;51.300;12.394;2023-06-14T07:47:01;3.90;;;3.20;;
25327;SDS011;13279;51.300;12.394;2023-06-14T07:49:29;4.87;;;3.73;;
25327;SDS011;13279;51.300;12.394;2023-06-14T07:51:58;4.33;;;3.10;;
25327;SDS011;13279;51.300;12.394;2023-06-14T07:54:25;6.57;;;3.13;;
25327;SDS011;13279;51.300;12.394;2023-06-14T07:56:53;3.10;;;2.80;;
25327;SDS011;13279;51.300;12.394;2023-06-14T07:59:24;3.40;;;3.00;;
25327;SDS011;13279;51.300;12.394;2023-06-14T08:01:51;4.00;;;3.10;;
25327;SDS011;13279;51.300;12.394;2023-06-14T08:04:19;4.43;;;3.47;;
25327;SDS011;13279;51.300;12.394;2023-06-14T08:06:46;11.27;;;3.10;;
25327;SDS011;13279;51.300;12.394;2023-06-14T08:09:15;5.97;;;3.50;;
25327;SDS011;13279;51.300;12.394;2023-06-14T08:11:42;4.27;;;3.23;;
25327;SDS011;13279;51.300;12.394;2023-06-14T08:14:10;5.23;;;3.20;;
25327;SDS011;13279;51.300;12.394;2023-06-14T08:16:37;5.17;;;3.20;;
25327;SDS011;13279;51.300;12.394;2023-06-14T08:19:05;3.50;;;3.10;;
25327;SDS011;13279;51.300;12.394;2023-06-14T08:21:32;3.33;;;3.03;;
25327;SDS011;13279;51.300;12.394;2023-06-14T08:24:02;5.17;;;2.87;;
25327;SDS011;13279;51.300;12.394;2023-06-14T08:26:31;6.63;;;3.57;;
25327;SDS011;13279;51.300;12.394;2023-06-14T08:29:01;5.53;;;2.80;;
25327;SDS011;13279;51.300;12.394;2023-06-14T08:31:28;2.80;;;2.60;;
25327;SDS011;13279;51.300;12.394;2023-06-14T08:33:57;4.33;;;3.30;;
25327;SDS011;13279;51.300;12.394;2023-06-14T08:36:25;4.83;;;3.07;;
25327;SDS011;13279;51.300;12.394;2023-06-14T08:38:52;3.57;;;3.20;;
25327;SDS011;13279;51.300;12.394;2023-06-14T08:41:20;7.80;;;3.40;;
25327;SDS011;13279;51.300;12.394;2023-06-14T08:43:52;9.60;;;3.47;;
25327;SDS011;13279;51.300;12.394;2023-06-14T08:46:19;3.77;;;3.20;;
25327;SDS011;13279;51.300;12.394;2023-06-14T08:48:48;3.50;;;3.10;;
25327;SDS011;13279;51.300;12.394;2023-06-14T08:51:17;4.30;;;3.20;;
25327;SDS011;13279;51.300;12.394;2023-06-14T08:53:49;3.30;;;3.00;;
25327;SDS011;13279;51.300;12.394;2023-06-14T08:56:23;7.83;;;3.60;;
25327;SDS011;13279;51.300;12.394;2023-06-14T08:58:54;3.83;;;3.10;;
25327;SDS011;13279;51.300;12.394;2023-06-14T09:01:28;5.13;;;2.80;;
25327;SDS011;13279;51.300;12.394;2023-06-14T09:03:57;3.00;;;2.80;;
25327;SDS011;13279;51.300;12.394;2023-06-14T09:06:27;4.53;;;3.33;;
25327;SDS011;13279;51.300;12.394;2023-06-14T09:08:55;3.47;;;3.20;;
25327;SDS011;13279;51.300;12.394;2023-06-14T09:11:23;3.83;;;3.00;;
25327;SDS011;13279;51.300;12.394;2023-06-14T09:13:51;2.97;;;2.77;;
25327;SDS011;13279;51.300;12.394;2023-06-14T09:16:21;3.23;;;2.37;;
25327;SDS011;13279;51.300;12.394;2023-06-14T09:18:48;3.00;;;2.80;;
25327;SDS011;13279;51.300;12.394;2023-06-14T09:21:16;3.23;;;3.00;;
25327;SDS011;13279;51.300;12.394;2023-06-14T09:23:44;3.43;;;2.70;;
25327;SDS011;13279;51.300;12.394;2023-06-14T09:26:14;3.30;;;3.00;;
25327;SDS011;13279;51.300;12.394;2023-06-14T09:28:43;8.00;;;3.00;;
25327;SDS011;13279;51.300;12.394;2023-06-14T09:31:15;4.33;;;2.40;;
25327;SDS011;13279;51.300;12.394;2023-06-14T09:33:44;4.57;;;2.47;;
25327;SDS011;13279;51.300;12.394;2023-06-14T09:36:14;5.87;;;3.27;;
25327;SDS011;13279;51.300;12.394;2023-06-14T09:38:51;4.13;;;3.07;;
25327;SDS011;13279;51.300;12.394;2023-06-14T09:41:19;3.67;;;3.37;;
25327;SDS011;13279;51.300;12.394;2023-06-14T09:43:47;4.57;;;2.90;;
25327;SDS011;13279;51.300;12.394;2023-06-14T09:46:16;3.27;;;2.70;;
25327;SDS011;13279;51.300;12.394;2023-06-14T09:48:45;2.90;;;2.70;;
25327;SDS011;13279;51.300;12.394;2023-06-14T09:51:13;3.27;;;2.47;;
25327;SDS011;13279;51.300;12.394;2023-06-14T09:53:43;2.77;;;2.40;;
25327;SDS011;13279;51.300;12.394;2023-06-14T09:56:12;3.23;;;2.90;;
25327;SDS011;13279;51.300;12.394;2023-06-14T09:58:40;2.80;;;2.60;;
25327;SDS011;13279;51.300;12.394;2023-06-14T10:01:08;4.10;;;2.57;;
25327;SDS011;13279;51.300;12.394;2023-06-14T10:03:41;2.57;;;2.30;;
25327;SDS011;13279;51.300;12.394;2023-06-14T10:06:10;2.70;;;2.50;;
25327;SDS011;13279;51.300;12.394;2023-06-14T10:08:38;2.50;;;2.30;;
25327;SDS011;13279;51.300;12.394;2023-06-14T10:11:07;4.70;;;2.53;;
25327;SDS011;13279;51.300;12.394;2023-06-14T10:13:34;3.60;;;2.30;;
25327;SDS011;13279;51.300;12.394;2023-06-14T10:16:05;4.27;;;2.33;;
25327;SDS011;13279;51.300;12.394;2023-06-14T10:18:39;6.13;;;2.17;;
25327;SDS011;13279;51.300;12.394;2023-06-14T10:21:16;4.93;;;2.37;;
25327;SDS011;13279;51.300;12.394;2023-06-14T10:23:50;5.67;;;2.30;;
25327;SDS011;13279;51.300;12.394;2023-06-14T10:26:19;2.53;;;2.33;;
25327;SDS011;13279;51.300;12.394;2023-06-14T10:28:56;3.93;;;2.27;;
25327;SDS011;13279;51.300;12.394;2023-06-14T10:31:40;2.50;;;1.97;;
25327;SDS011;13279;51.300;12.394;2023-06-14T10:34:11;3.57;;;2.07;;
25327;SDS011;13279;51.300;12.394;2023-06-14T10:36:42;1.90;;;1.80;;
25327;SDS011;13279;51.300;12.394;2023-06-14T10:39:13;3.47;;;1.77;;
25327;SDS011;13279;51.300;12.394;2023-06-14T10:41:50;2.97;;;2.00;;
25327;SDS011;13279;51.300;12.394;2023-06-14T10:47:06;2.53;;;2.33;;
25327;SDS011;13279;51.300;12.394;2023-06-14T10:49:38;4.40;;;2.13;;
25327;SDS011;13279;51.300;12.394;2023-06-14T10:52:08;2.13;;;1.93;;
25327;SDS011;13279;51.300;12.394;2023-06-14T10:55:00;2.27;;;2.10;;
25327;SDS011;13279;51.300;12.394;2023-06-14T10:57:32;3.67;;;2.20;;
25327;SDS011;13279;51.300;12.394;2023-06-14T11:00:00;1.77;;;1.67;;
25327;SDS011;13279;51.300;12.394;2023-06-14T11:05:53;3.90;;;2.00;;
25327;SDS011;13279;51.300;12.394;2023-06-14T11:08:40;4.43;;;1.80;;
25327;SDS011;13279;51.300;12.394;2023-06-14T11:11:37;2.53;;;2.10;;
25327;SDS011;13279;51.300;12.394;2023-06-14T11:14:08;2.00;;;1.90;;
25327;SDS011;13279;51.300;12.394;2023-06-14T11:16:36;3.33;;;2.60;;
25327;SDS011;13279;51.300;12.394;2023-06-14T11:19:05;2.47;;;2.27;;
25327;SDS011;13279;51.300;12.394;2023-06-14T11:21:33;2.30;;;1.93;;
25327;SDS011;13279;51.300;12.394;2023-06-14T11:24:09;1.93;;;1.83;;
25327;SDS011;13279;51.300;12.394;2023-06-14T11:26:38;2.40;;;2.20;;
25327;SDS011;13279;51.300;12.394;2023-06-14T11:29:06;3.60;;;2.10;;
25327;SDS011;13279;51.300;12.394;2023-06-14T11:31:35;2.17;;;1.83;;
25327;SDS011;13279;51.300;12.394;2023-06-14T11:34:02;1.80;;;1.70;;
25327;SDS011;13279;51.300;12.394;2023-06-14T11:36:33;2.77;;;2.20;;
25327;SDS011;13279;51.300;12.394;2023-06-14T11:39:03;2.07;;;1.97;;
25327;SDS011;13279;51.300;12.394;2023-06-14T11:41:32;2.63;;;1.57;;
25327;SDS011;13279;51.300;12.394;2023-06-14T11:44:02;1.80;;;1.60;;
25327;SDS011;13279;51.300;12.394;2023-06-14T11:46:31;2.93;;;1.80;;
25327;SDS011;13279;51.300;12.394;2023-06-14T11:48:59;2.47;;;1.73;;
25327;SDS011;13279;51.300;12.394;2023-06-14T11:51:28;1.90;;;1.80;;
25327;SDS011;13279;51.300;12.394;2023-06-14T11:53:57;2.03;;;1.83;;
25327;SDS011;13279;51.300;12.394;2023-06-14T11:56:25;2.47;;;2.27;;
25327;SDS011;13279;51.300;12.394;2023-06-14T11:58:53;2.03;;;1.93;;
25327;SDS011;13279;51.300;12.394;2023-06-14T12:01:22;3.93;;;2.27;;
25327;SDS011;13279;51.300;12.394;2023-06-14T12:03:49;4.40;;;2.30;;
25327;SDS011;13279;51.300;12.394;2023-06-14T12:06:25;3.63;;;2.60;;
25327;SDS011;13279;51.300;12.394;2023-06-14T12:08:59;2.67;;;2.20;;
25327;SDS011;13279;51.300;12.394;2023-06-14T12:11:31;2.20;;;2.00;;
25327;SDS011;13279;51.300;12.394;2023-06-14T12:14:00;3.93;;;2.10;;
25327;SDS011;13279;51.300;12.394;2023-06-14T12:16:30;2.50;;;2.30;;
25327;SDS011;13279;51.300;12.394;2023-06-14T12:19:09;2.20;;;2.00;;
25327;SDS011;13279;51.300;12.394;2023-06-14T12:21:41;4.27;;;2.40;;
25327;SDS011;13279;51.300;12.394;2023-06-14T12:24:11;2.40;;;2.20;;
25327;SDS011;13279;51.300;12.394;2023-06-14T12:26:39;2.00;;;1.90;;
25327;SDS011;13279;51.300;12.394;2023-06-14T12:29:07;3.07;;;2.13;;
25327;SDS011;13279;51.300;12.394;2023-06-14T12:31:35;2.47;;;2.27;;
25327;SDS011;13279;51.300;12.394;2023-06-14T12:34:03;2.43;;;2.23;;
25327;SDS011;13279;51.300;12.394;2023-06-14T12:36:30;2.63;;;2.20;;
25327;SDS011;13279;51.300;12.394;2023-06-14T12:38:57;2.40;;;2.20;;
25327;SDS011;13279;51.300;12.394;2023-06-14T12:41:27;2.40;;;2.20;;
25327;SDS011;13279;51.300;12.394;2023-06-14T12:43:55;2.33;;;2.10;;
25327;SDS011;13279;51.300;12.394;2023-06-14T12:46:23;2.37;;;2.17;;
25327;SDS011;13279;51.300;12.394;2023-06-14T12:48:51;3.43;;;2.10;;
25327;SDS011;13279;51.300;12.394;2023-06-14T12:51:18;4.70;;;2.17;;
25327;SDS011;13279;51.300;12.394;2023-06-14T12:53:45;2.30;;;2.10;;
25327;SDS011;13279;51.300;12.394;2023-06-14T12:56:12;2.93;;;2.10;;
25327;SDS011;13279;51.300;12.394;2023-06-14T12:58:41;5.37;;;2.37;;
25327;SDS011;13279;51.300;12.394;2023-06-14T13:01:08;4.53;;;2.47;;
25327;SDS011;13279;51.300;12.394;2023-06-14T13:03:36;2.20;;;2.03;;
25327;SDS011;13279;51.300;12.394;2023-06-14T13:06:03;2.50;;;2.27;;
25327;SDS011;13279;51.300;12.394;2023-06-14T13:08:31;3.60;;;2.40;;
25327;SDS011;13279;51.300;12.394;2023-06-14T13:10:59;2.40;;;2.30;;
25327;SDS011;13279;51.300;12.394;2023-06-14T13:13:26;5.23;;;2.40;;
25327;SDS011;13279;51.300;12.394;2023-06-14T13:16:02;2.63;;;2.43;;
25327;SDS011;13279;51.300;12.394;2023-06-14T13:18:33;2.40;;;2.30;;
25327;SDS011;13279;51.300;12.394;2023-06-14T13:21:16;7.70;;;2.40;;
25327;SDS011;13279;51.300;12.394;2023-06-14T13:23:49;3.87;;;2.27;;
25327;SDS011;13279;51.300;12.394;2023-06-14T13:26:25;2.43;;;2.23;;
25327;SDS011;13279;51.300;12.394;2023-06-14T13:28:56;6.67;;;2.60;;
25327;SDS011;13279;51.300;12.394;2023-06-14T13:31:25;7.27;;;2.83;;
25327;SDS011;13279;51.300;12.394;2023-06-14T13:33:59;2.50;;;2.30;;
25327;SDS011;13279;51.300;12.394;2023-06-14T13:36:29;2.60;;;1.97;;
25327;SDS011;13279;51.300;12.394;2023-06-14T13:39:03;2.73;;;2.33;;
25327;SDS011;13279;51.300;12.394;2023-06-14T13:41:37;3.53;;;2.67;;
25327;SDS011;13279;51.300;12.394;2023-06-14T13:44:14;4.07;;;2.90;;
25327;SDS011;13279;51.300;12.394;2023-06-14T13:46:45;2.97;;;2.77;;
25327;SDS011;13279;51.300;12.394;2023-06-14T13:49:23;6.93;;;2.70;;
25327;SDS011;13279;51.300;12.394;2023-06-14T13:51:53;3.73;;;2.70;;
25327;SDS011;13279;51.300;12.394;2023-06-14T13:54:20;5.63;;;3.00;;
25327;SDS011;13279;51.300;12.394;2023-06-14T13:56:48;7.87;;;2.93;;
25327;SDS011;13279;51.300;12.394;2023-06-14T13:59:15;5.07;;;2.77;;
25327;SDS011;13279;51.300;12.394;2023-06-14T14:01:44;4.63;;;2.83;;
25327;SDS011;13279;51.300;12.394;2023-06-14T14:04:12;4.67;;;3.27;;
25327;SDS011;13279;51.300;12.394;2023-06-14T14:06:40;2.80;;;2.50;;
25327;SDS011;13279;51.300;12.394;2023-06-14T14:09:07;5.80;;;2.93;;
25327;SDS011;13279;51.300;12.394;2023-06-14T14:11:35;3.07;;;2.77;;
25327;SDS011;13279;51.300;12.394;2023-06-14T14:14:02;14.33;;;3.40;;
25327;SDS011;13279;51.300;12.394;2023-06-14T14:16:30;2.70;;;2.50;;
25327;SDS011;13279;51.300;12.394;2023-06-14T14:18:59;3.87;;;2.90;;
25327;SDS011;13279;51.300;12.394;2023-06-14T14:21:27;2.70;;;2.50;;
25327;SDS011;13279;51.300;12.394;2023-06-14T14:23:54;2.93;;;2.60;;
25327;SDS011;13279;51.300;12.394;2023-06-14T14:26:22;9.30;;;2.73;;
25327;SDS011;13279;51.300;12.394;2023-06-14T14:28:50;3.73;;;2.53;;
25327;SDS011;13279;51.300;12.394;2023-06-14T14:31:18;2.93;;;2.50;;
25327;SDS011;13279;51.300;12.394;2023-06-14T14:33:45;2.43;;;2.23;;
25327;SDS011;13279;51.300;12.394;2023-06-14T14:36:14;2.73;;;2.20;;
25327;SDS011;13279;51.300;12.394;2023-06-14T14:38:41;2.57;;;2.37;;
25327;SDS011;13279;51.300;12.394;2023-06-14T14:41:09;3.33;;;2.13;;
25327;SDS011;13279;51.300;12.394;2023-06-14T14:43:36;3.20;;;2.30;;
25327;SDS011;13279;51.300;12.394;2023-06-14T14:46:04;7.30;;;2.63;;
25327;SDS011;13279;51.300;12.394;2023-06-14T14:48:31;3.27;;;2.40;;
25327;SDS011;13279;51.300;12.394;2023-06-14T14:50:59;5.70;;;2.50;;
25327;SDS011;13279;51.300;12.394;2023-06-14T14:53:27;2.93;;;2.63;;
25327;SDS011;13279;51.300;12.394;2023-06-14T14:55:55;2.87;;;2.57;;